sensor_id;sensor_type;location;lat;lon;timestamp;P1;durP1;ratioP1;P2;durP2;ratioP2
13483;SDS011;6814;57.786;12.080;2023-01-10T00:01:14;29.00;;;11.83;;
13483;SDS011;6814;57.786;12.080;2023-01-10T00:03:40;28.00;;;11.93;;
13483;SDS011;6814;57.786;12.080;2023-01-10T00:06:07;27.03;;;11.33;;
13483;SDS011;6814;57.786;12.080;2023-01-10T00:08:33;35.30;;;13.53;;
13483;SDS011;6814;57.786;12.080;2023-01-10T00:11:00;25.27;;;11.17;;
13483;SDS011;6814;57.786;12.080;2023-01-10T00:13:48;29.80;;;12.70;;
13483;SDS011;6814;57.786;12.080;2023-01-10T00:16:16;30.93;;;14.10;;
13483;SDS011;6814;57.786;12.080;2023-01-10T00:18:42;31.57;;;13.07;;
13483;SDS011;6814;57.786;12.080;2023-01-10T00:21:09;38.90;;;13.03;;
13483;SDS011;6814;57.786;12.080;2023-01-10T00:23:38;30.00;;;12.00;;
13483;SDS011;6814;57.786;12.080;2023-01-10T00:26:05;38.80;;;13.83;;
13483;SDS011;6814;57.786;12.080;2023-01-10T00:28:31;28.10;;;11.97;;
13483;SDS011;6814;57.786;12.080;2023-01-10T00:31:00;36.20;;;13.20;;
13483;SDS011;6814;57.786;12.080;2023-01-10T00:33:30;36.10;;;13.00;;
13483;SDS011;6814;57.786;12.080;2023-01-10T00:35:57;32.23;;;13.00;;
13483;SDS011;6814;57.786;12.080;2023-01-10T00:38:24;38.83;;;15.87;;
13483;SDS011;6814;57.786;12.080;2023-01-10T00:40:50;34.00;;;14.53;;
13483;SDS011;6814;57.786;12.080;2023-01-10T00:43:17;39.97;;;14.37;;
13483;SDS011;6814;57.786;12.080;2023-01-10T00:46:03;38.20;;;14.50;;
13483;SDS011;6814;57.786;12.080;2023-01-10T00:48:29;33.47;;;16.00;;
13483;SDS011;6814;57.786;12.080;2023-01-10T00:50:55;33.93;;;16.10;;
13483;SDS011;6814;57.786;12.080;2023-01-10T00:53:22;44.07;;;14.27;;
13483;SDS011;6814;57.786;12.080;2023-01-10T00:55:48;35.47;;;14.37;;
13483;SDS011;6814;57.786;12.080;2023-01-10T00:58:15;33.80;;;13.90;;
13483;SDS011;6814;57.786;12.080;2023-01-10T01:00:42;33.93;;;14.77;;
13483;SDS011;6814;57.786;12.080;2023-01-10T01:03:12;28.43;;;14.57;;
13483;SDS011;6814;57.786;12.080;2023-01-10T01:05:39;34.77;;;14.60;;
13483;SDS011;6814;57.786;12.080;2023-01-10T01:08:05;27.30;;;13.97;;
13483;SDS011;6814;57.786;12.080;2023-01-10T01:10:32;28.87;;;12.93;;
13483;SDS011;6814;57.786;12.080;2023-01-10T01:12:59;33.00;;;14.03;;
13483;SDS011;6814;57.786;12.080;2023-01-10T01:15:26;30.60;;;13.50;;
13483;SDS011;6814;57.786;12.080;2023-01-10T01:17:52;34.97;;;15.20;;
13483;SDS011;6814;57.786;12.080;2023-01-10T01:20:21;36.30;;;13.53;;
13483;SDS011;6814;57.786;12.080;2023-01-10T01:22:47;33.27;;;14.00;;
13483;SDS011;6814;57.786;12.080;2023-01-10T01:25:14;33.13;;;12.87;;
13483;SDS011;6814;57.786;12.080;2023-01-10T01:27:40;36.27;;;14.20;;
13483;SDS011;6814;57.786;12.080;2023-01-10T01:30:08;30.87;;;13.23;;
13483;SDS011;6814;57.786;12.080;2023-01-10T01:32:35;34.40;;;13.43;;
13483;SDS011;6814;57.786;12.080;2023-01-10T01:35:01;31.00;;;11.97;;
13483;SDS011;6814;57.786;12.080;2023-01-10T01:37:29;27.20;;;12.17;;
13483;SDS011;6814;57.786;12.080;2023-01-10T01:39:55;27.60;;;10.13;;
13483;SDS011;6814;57.786;12.080;2023-01-10T01:42:26;27.37;;;11.57;;
13483;SDS011;6814;57.786;12.080;2023-01-10T01:45:14;20.87;;;10.20;;
13483;SDS011;6814;57.786;12.080;2023-01-10T01:47:50;26.47;;;12.43;;
13483;SDS011;6814;57.786;12.080;2023-01-10T01:50:20;24.23;;;10.20;;
13483;SDS011;6814;57.786;12.080;2023-01-10T01:52:49;31.00;;;12.20;;
13483;SDS011;6814;57.786;12.080;2023-01-10T01:55:18;26.40;;;11.97;;
13483;SDS011;6814;57.786;12.080;2023-01-10T01:57:44;32.97;;;10.70;;
13483;SDS011;6814;57.786;12.080;2023-01-10T02:00:12;31.13;;;11.97;;
13483;SDS011;6814;57.786;12.080;2023-01-10T02:02:39;25.07;;;11.30;;
13483;SDS011;6814;57.786;12.080;2023-01-10T02:05:08;27.43;;;11.43;;
13483;SDS011;6814;57.786;12.080;2023-01-10T02:07:36;34.37;;;10.77;;
13483;SDS011;6814;57.786;12.080;2023-01-10T02:10:06;27.90;;;10.70;;
13483;SDS011;6814;57.786;12.080;2023-01-10T02:12:33;31.87;;;10.30;;
13483;SDS011;6814;57.786;12.080;2023-01-10T02:15:00;24.73;;;10.13;;
13483;SDS011;6814;57.786;12.080;2023-01-10T02:17:27;28.63;;;9.53;;
13483;SDS011;6814;57.786;12.080;2023-01-10T02:19:54;29.17;;;10.30;;
13483;SDS011;6814;57.786;12.080;2023-01-10T02:28:04;24.80;;;10.00;;
13483;SDS011;6814;57.786;12.080;2023-01-10T02:30:44;22.83;;;8.70;;
13483;SDS011;6814;57.786;12.080;2023-01-10T02:33:15;23.13;;;8.37;;
13483;SDS011;6814;57.786;12.080;2023-01-10T02:35:47;22.30;;;8.50;;
13483;SDS011;6814;57.786;12.080;2023-01-10T02:38:17;21.87;;;7.57;;
13483;SDS011;6814;57.786;12.080;2023-01-10T02:40:48;28.90;;;7.50;;
13483;SDS011;6814;57.786;12.080;2023-01-10T02:43:18;16.50;;;6.93;;
13483;SDS011;6814;57.786;12.080;2023-01-10T02:45:46;18.50;;;6.00;;
13483;SDS011;6814;57.786;12.080;2023-01-10T02:48:16;19.70;;;6.07;;
13483;SDS011;6814;57.786;12.080;2023-01-10T02:50:44;22.50;;;6.10;;
13483;SDS011;6814;57.786;12.080;2023-01-10T02:53:13;20.00;;;5.80;;
13483;SDS011;6814;57.786;12.080;2023-01-10T02:55:46;20.57;;;6.17;;
13483;SDS011;6814;57.786;12.080;2023-01-10T02:58:19;19.40;;;5.83;;
13483;SDS011;6814;57.786;12.080;2023-01-10T03:00:50;21.20;;;6.40;;
13483;SDS011;6814;57.786;12.080;2023-01-10T03:03:24;12.33;;;5.70;;
13483;SDS011;6814;57.786;12.080;2023-01-10T03:06:00;15.00;;;5.57;;
13483;SDS011;6814;57.786;12.080;2023-01-10T03:08:31;13.10;;;5.47;;
13483;SDS011;6814;57.786;12.080;2023-01-10T03:10:58;19.30;;;7.20;;
13483;SDS011;6814;57.786;12.080;2023-01-10T03:13:26;22.57;;;7.13;;
13483;SDS011;6814;57.786;12.080;2023-01-10T03:15:54;18.43;;;6.87;;
13483;SDS011;6814;57.786;12.080;2023-01-10T03:18:24;20.83;;;6.97;;
13483;SDS011;6814;57.786;12.080;2023-01-10T03:20:53;23.23;;;7.70;;
13483;SDS011;6814;57.786;12.080;2023-01-10T03:23:20;21.40;;;8.50;;
13483;SDS011;6814;57.786;12.080;2023-01-10T03:25:48;20.70;;;7.70;;
13483;SDS011;6814;57.786;12.080;2023-01-10T03:28:16;24.00;;;7.90;;
13483;SDS011;6814;57.786;12.080;2023-01-10T03:30:45;21.10;;;7.60;;
13483;SDS011;6814;57.786;12.080;2023-01-10T03:33:15;16.80;;;7.33;;
13483;SDS011;6814;57.786;12.080;2023-01-10T03:35:48;23.40;;;7.60;;
13483;SDS011;6814;57.786;12.080;2023-01-10T03:38:19;24.63;;;8.00;;
13483;SDS011;6814;57.786;12.080;2023-01-10T03:40:46;21.63;;;7.67;;
13483;SDS011;6814;57.786;12.080;2023-01-10T03:43:18;28.03;;;8.63;;
13483;SDS011;6814;57.786;12.080;2023-01-10T03:46:05;22.60;;;8.80;;
13483;SDS011;6814;57.786;12.080;2023-01-10T03:48:34;27.27;;;9.77;;
13483;SDS011;6814;57.786;12.080;2023-01-10T03:51:03;25.20;;;8.93;;
13483;SDS011;6814;57.786;12.080;2023-01-10T03:53:30;23.87;;;9.33;;
13483;SDS011;6814;57.786;12.080;2023-01-10T03:55:57;27.20;;;10.50;;
13483;SDS011;6814;57.786;12.080;2023-01-10T03:58:24;24.40;;;10.63;;
13483;SDS011;6814;57.786;12.080;2023-01-10T04:00:51;23.77;;;10.03;;
13483;SDS011;6814;57.786;12.080;2023-01-10T04:03:17;24.47;;;10.53;;
13483;SDS011;6814;57.786;12.080;2023-01-10T04:05:44;27.13;;;10.60;;
13483;SDS011;6814;57.786;12.080;2023-01-10T04:08:12;28.47;;;10.77;;
13483;SDS011;6814;57.786;12.080;2023-01-10T04:10:38;22.97;;;10.60;;
13483;SDS011;6814;57.786;12.080;2023-01-10T04:13:05;32.07;;;10.13;;
13483;SDS011;6814;57.786;12.080;2023-01-10T04:15:31;28.30;;;10.30;;
13483;SDS011;6814;57.786;12.080;2023-01-10T04:17:58;33.13;;;11.17;;
13483;SDS011;6814;57.786;12.080;2023-01-10T04:20:24;28.07;;;10.93;;
13483;SDS011;6814;57.786;12.080;2023-01-10T04:22:51;23.07;;;11.60;;
13483;SDS011;6814;57.786;12.080;2023-01-10T04:25:20;26.30;;;11.00;;
13483;SDS011;6814;57.786;12.080;2023-01-10T04:27:47;28.90;;;11.00;;
13483;SDS011;6814;57.786;12.080;2023-01-10T04:30:14;24.80;;;11.37;;
13483;SDS011;6814;57.786;12.080;2023-01-10T04:32:40;27.03;;;10.70;;
13483;SDS011;6814;57.786;12.080;2023-01-10T04:35:07;27.93;;;11.00;;
13483;SDS011;6814;57.786;12.080;2023-01-10T04:37:34;25.20;;;10.87;;
13483;SDS011;6814;57.786;12.080;2023-01-10T04:40:00;26.87;;;10.90;;
13483;SDS011;6814;57.786;12.080;2023-01-10T04:42:28;24.80;;;10.57;;
13483;SDS011;6814;57.786;12.080;2023-01-10T04:44:54;28.27;;;10.60;;
13483;SDS011;6814;57.786;12.080;2023-01-10T04:47:21;24.33;;;8.90;;
13483;SDS011;6814;57.786;12.080;2023-01-10T04:49:47;22.97;;;9.53;;
13483;SDS011;6814;57.786;12.080;2023-01-10T04:52:14;25.10;;;9.70;;
13483;SDS011;6814;57.786;12.080;2023-01-10T04:54:40;25.13;;;8.47;;
13483;SDS011;6814;57.786;12.080;2023-01-10T04:57:07;26.57;;;9.10;;
13483;SDS011;6814;57.786;12.080;2023-01-10T04:59:34;29.37;;;10.03;;
13483;SDS011;6814;57.786;12.080;2023-01-10T05:02:01;26.90;;;9.87;;
13483;SDS011;6814;57.786;12.080;2023-01-10T05:04:27;26.30;;;9.00;;
13483;SDS011;6814;57.786;12.080;2023-01-10T05:06:54;19.97;;;9.20;;
13483;SDS011;6814;57.786;12.080;2023-01-10T05:09:20;29.33;;;9.67;;
13483;SDS011;6814;57.786;12.080;2023-01-10T05:11:46;23.17;;;9.57;;
13483;SDS011;6814;57.786;12.080;2023-01-10T05:14:13;19.90;;;9.20;;
13483;SDS011;6814;57.786;12.080;2023-01-10T05:16:40;24.90;;;8.70;;
13483;SDS011;6814;57.786;12.080;2023-01-10T05:19:07;16.70;;;7.47;;
13483;SDS011;6814;57.786;12.080;2023-01-10T05:21:33;25.67;;;8.67;;
13483;SDS011;6814;57.786;12.080;2023-01-10T05:24:00;19.57;;;7.53;;
13483;SDS011;6814;57.786;12.080;2023-01-10T05:26:26;23.20;;;9.20;;
13483;SDS011;6814;57.786;12.080;2023-01-10T05:28:53;26.63;;;7.93;;
13483;SDS011;6814;57.786;12.080;2023-01-10T05:31:19;22.10;;;7.90;;
13483;SDS011;6814;57.786;12.080;2023-01-10T05:33:47;21.57;;;7.47;;
13483;SDS011;6814;57.786;12.080;2023-01-10T05:36:14;16.20;;;6.20;;
13483;SDS011;6814;57.786;12.080;2023-01-10T05:38:41;25.30;;;6.63;;
13483;SDS011;6814;57.786;12.080;2023-01-10T05:41:07;18.33;;;6.80;;
13483;SDS011;6814;57.786;12.080;2023-01-10T05:43:34;18.00;;;6.67;;
13483;SDS011;6814;57.786;12.080;2023-01-10T05:46:00;15.83;;;5.83;;
13483;SDS011;6814;57.786;12.080;2023-01-10T05:48:26;16.60;;;6.37;;
13483;SDS011;6814;57.786;12.080;2023-01-10T05:50:54;14.20;;;5.30;;
13483;SDS011;6814;57.786;12.080;2023-01-10T05:53:21;17.03;;;5.90;;
13483;SDS011;6814;57.786;12.080;2023-01-10T05:55:51;14.03;;;5.27;;
13483;SDS011;6814;57.786;12.080;2023-01-10T05:58:18;19.90;;;5.80;;
13483;SDS011;6814;57.786;12.080;2023-01-10T06:00:44;16.73;;;5.83;;
13483;SDS011;6814;57.786;12.080;2023-01-10T06:03:11;15.57;;;5.33;;
13483;SDS011;6814;57.786;12.080;2023-01-10T06:05:38;15.23;;;5.27;;
13483;SDS011;6814;57.786;12.080;2023-01-10T06:08:05;13.83;;;5.10;;
13483;SDS011;6814;57.786;12.080;2023-01-10T06:10:32;15.67;;;6.13;;
13483;SDS011;6814;57.786;12.080;2023-01-10T06:12:58;17.70;;;7.00;;
13483;SDS011;6814;57.786;12.080;2023-01-10T06:15:25;20.33;;;5.90;;
13483;SDS011;6814;57.786;12.080;2023-01-10T06:17:52;18.57;;;6.20;;
13483;SDS011;6814;57.786;12.080;2023-01-10T06:20:18;12.63;;;6.10;;
13483;SDS011;6814;57.786;12.080;2023-01-10T06:22:45;18.17;;;6.67;;
13483;SDS011;6814;57.786;12.080;2023-01-10T06:25:15;16.23;;;6.83;;
13483;SDS011;6814;57.786;12.080;2023-01-10T06:27:42;15.57;;;6.90;;
13483;SDS011;6814;57.786;12.080;2023-01-10T06:30:11;19.67;;;6.73;;
13483;SDS011;6814;57.786;12.080;2023-01-10T06:32:37;16.10;;;6.73;;
13483;SDS011;6814;57.786;12.080;2023-01-10T06:35:05;19.23;;;6.80;;
13483;SDS011;6814;57.786;12.080;2023-01-10T06:37:32;18.73;;;7.07;;
13483;SDS011;6814;57.786;12.080;2023-01-10T06:40:01;12.47;;;7.10;;
13483;SDS011;6814;57.786;12.080;2023-01-10T06:42:35;13.97;;;7.07;;
13483;SDS011;6814;57.786;12.080;2023-01-10T06:45:03;16.83;;;6.43;;
13483;SDS011;6814;57.786;12.080;2023-01-10T06:47:29;15.70;;;6.07;;
13483;SDS011;6814;57.786;12.080;2023-01-10T06:49:56;15.23;;;7.13;;
13483;SDS011;6814;57.786;12.080;2023-01-10T06:52:22;15.20;;;5.97;;
13483;SDS011;6814;57.786;12.080;2023-01-10T06:54:49;15.23;;;6.83;;
13483;SDS011;6814;57.786;12.080;2023-01-10T06:57:17;12.93;;;6.23;;
13483;SDS011;6814;57.786;12.080;2023-01-10T06:59:45;12.13;;;5.00;;
13483;SDS011;6814;57.786;12.080;2023-01-10T07:02:11;12.40;;;5.70;;
13483;SDS011;6814;57.786;12.080;2023-01-10T07:04:38;12.17;;;5.43;;
13483;SDS011;6814;57.786;12.080;2023-01-10T07:07:04;18.43;;;5.43;;
13483;SDS011;6814;57.786;12.080;2023-01-10T07:09:30;15.93;;;5.50;;
13483;SDS011;6814;57.786;12.080;2023-01-10T07:11:57;18.27;;;5.53;;
13483;SDS011;6814;57.786;12.080;2023-01-10T07:14:23;17.20;;;5.70;;
13483;SDS011;6814;57.786;12.080;2023-01-10T07:16:51;13.27;;;5.17;;
13483;SDS011;6814;57.786;12.080;2023-01-10T07:19:17;13.80;;;5.00;;
13483;SDS011;6814;57.786;12.080;2023-01-10T07:21:44;15.60;;;5.03;;
13483;SDS011;6814;57.786;12.080;2023-01-10T07:24:10;11.77;;;5.40;;
13483;SDS011;6814;57.786;12.080;2023-01-10T07:26:37;8.77;;;4.90;;
13483;SDS011;6814;57.786;12.080;2023-01-10T07:29:03;11.33;;;5.03;;
13483;SDS011;6814;57.786;12.080;2023-01-10T07:31:30;12.07;;;4.70;;
13483;SDS011;6814;57.786;12.080;2023-01-10T07:33:57;10.33;;;3.87;;
13483;SDS011;6814;57.786;12.080;2023-01-10T07:36:24;9.87;;;3.97;;
13483;SDS011;6814;57.786;12.080;2023-01-10T07:38:50;10.17;;;3.83;;
13483;SDS011;6814;57.786;12.080;2023-01-10T07:41:17;13.10;;;5.20;;
13483;SDS011;6814;57.786;12.080;2023-01-10T07:43:43;12.57;;;4.20;;
13483;SDS011;6814;57.786;12.080;2023-01-10T07:46:09;15.10;;;4.40;;
13483;SDS011;6814;57.786;12.080;2023-01-10T07:48:37;9.23;;;3.67;;
13483;SDS011;6814;57.786;12.080;2023-01-10T07:51:07;16.23;;;4.83;;
13483;SDS011;6814;57.786;12.080;2023-01-10T07:53:33;11.87;;;4.37;;
13483;SDS011;6814;57.786;12.080;2023-01-10T07:56:00;14.33;;;4.20;;
13483;SDS011;6814;57.786;12.080;2023-01-10T07:58:27;10.27;;;3.73;;
13483;SDS011;6814;57.786;12.080;2023-01-10T08:00:55;15.10;;;4.10;;
13483;SDS011;6814;57.786;12.080;2023-01-10T08:03:22;12.13;;;3.77;;
13483;SDS011;6814;57.786;12.080;2023-01-10T08:05:48;11.77;;;3.73;;
13483;SDS011;6814;57.786;12.080;2023-01-10T08:08:16;13.93;;;4.43;;
13483;SDS011;6814;57.786;12.080;2023-01-10T08:10:43;8.40;;;3.83;;
13483;SDS011;6814;57.786;12.080;2023-01-10T08:13:09;9.00;;;3.83;;
13483;SDS011;6814;57.786;12.080;2023-01-10T08:15:36;13.17;;;3.67;;
13483;SDS011;6814;57.786;12.080;2023-01-10T08:18:03;11.33;;;3.60;;
13483;SDS011;6814;57.786;12.080;2023-01-10T08:20:29;11.23;;;4.30;;
13483;SDS011;6814;57.786;12.080;2023-01-10T08:22:56;8.90;;;3.60;;
13483;SDS011;6814;57.786;12.080;2023-01-10T08:25:24;11.00;;;3.90;;
13483;SDS011;6814;57.786;12.080;2023-01-10T08:27:51;7.53;;;3.37;;
13483;SDS011;6814;57.786;12.080;2023-01-10T08:30:18;11.83;;;3.90;;
13483;SDS011;6814;57.786;12.080;2023-01-10T08:32:44;10.33;;;4.00;;
13483;SDS011;6814;57.786;12.080;2023-01-10T08:35:11;14.60;;;3.60;;
13483;SDS011;6814;57.786;12.080;2023-01-10T08:37:37;10.27;;;3.10;;
13483;SDS011;6814;57.786;12.080;2023-01-10T08:40:04;10.47;;;3.80;;
13483;SDS011;6814;57.786;12.080;2023-01-10T08:42:32;10.20;;;3.63;;
13483;SDS011;6814;57.786;12.080;2023-01-10T08:44:59;14.87;;;3.53;;
13483;SDS011;6814;57.786;12.080;2023-01-10T08:47:25;14.03;;;3.43;;
13483;SDS011;6814;57.786;12.080;2023-01-10T08:49:53;11.83;;;3.43;;
13483;SDS011;6814;57.786;12.080;2023-01-10T08:52:19;12.37;;;3.53;;
13483;SDS011;6814;57.786;12.080;2023-01-10T08:54:45;10.23;;;2.87;;
13483;SDS011;6814;57.786;12.080;2023-01-10T08:57:12;7.57;;;3.40;;
13483;SDS011;6814;57.786;12.080;2023-01-10T08:59:40;12.60;;;3.43;;
13483;SDS011;6814;57.786;12.080;2023-01-10T09:02:07;12.50;;;3.73;;
13483;SDS011;6814;57.786;12.080;2023-01-10T09:04:37;14.20;;;4.10;;
13483;SDS011;6814;57.786;12.080;2023-01-10T09:07:03;11.50;;;3.57;;
13483;SDS011;6814;57.786;12.080;2023-01-10T09:09:30;11.17;;;4.03;;
13483;SDS011;6814;57.786;12.080;2023-01-10T09:11:56;10.93;;;3.33;;
13483;SDS011;6814;57.786;12.080;2023-01-10T09:14:22;15.10;;;3.63;;
13483;SDS011;6814;57.786;12.080;2023-01-10T09:16:50;8.73;;;4.10;;
13483;SDS011;6814;57.786;12.080;2023-01-10T09:19:17;8.17;;;3.70;;
13483;SDS011;6814;57.786;12.080;2023-01-10T09:21:44;13.20;;;3.53;;
13483;SDS011;6814;57.786;12.080;2023-01-10T09:24:10;11.73;;;3.20;;
13483;SDS011;6814;57.786;12.080;2023-01-10T09:26:36;8.33;;;3.43;;
13483;SDS011;6814;57.786;12.080;2023-01-10T09:29:03;11.20;;;3.00;;
13483;SDS011;6814;57.786;12.080;2023-01-10T09:31:29;13.30;;;3.27;;
13483;SDS011;6814;57.786;12.080;2023-01-10T09:33:57;10.57;;;2.83;;
13483;SDS011;6814;57.786;12.080;2023-01-10T09:36:24;12.63;;;2.90;;
13483;SDS011;6814;57.786;12.080;2023-01-10T09:38:50;11.57;;;3.30;;
13483;SDS011;6814;57.786;12.080;2023-01-10T09:41:21;10.57;;;2.87;;
13483;SDS011;6814;57.786;12.080;2023-01-10T09:43:50;10.47;;;3.57;;
13483;SDS011;6814;57.786;12.080;2023-01-10T09:46:21;6.63;;;2.73;;
13483;SDS011;6814;57.786;12.080;2023-01-10T09:48:51;11.33;;;3.07;;
13483;SDS011;6814;57.786;12.080;2023-01-10T09:51:27;9.33;;;2.63;;
13483;SDS011;6814;57.786;12.080;2023-01-10T09:53:56;10.17;;;3.13;;
13483;SDS011;6814;57.786;12.080;2023-01-10T09:56:24;9.37;;;2.90;;
13483;SDS011;6814;57.786;12.080;2023-01-10T09:58:51;8.10;;;3.07;;
13483;SDS011;6814;57.786;12.080;2023-01-10T10:01:18;5.63;;;2.53;;
13483;SDS011;6814;57.786;12.080;2023-01-10T10:03:47;6.03;;;2.43;;
13483;SDS011;6814;57.786;12.080;2023-01-10T10:06:17;6.40;;;2.50;;
13483;SDS011;6814;57.786;12.080;2023-01-10T10:08:45;6.53;;;2.40;;
13483;SDS011;6814;57.786;12.080;2023-01-10T10:11:22;9.60;;;3.07;;
13483;SDS011;6814;57.786;12.080;2023-01-10T10:14:02;6.43;;;2.63;;
13483;SDS011;6814;57.786;12.080;2023-01-10T10:16:33;11.13;;;2.60;;
13483;SDS011;6814;57.786;12.080;2023-01-10T10:19:08;9.00;;;2.50;;
13483;SDS011;6814;57.786;12.080;2023-01-10T10:21:40;6.47;;;2.50;;
13483;SDS011;6814;57.786;12.080;2023-01-10T10:24:25;12.97;;;2.97;;
13483;SDS011;6814;57.786;12.080;2023-01-10T10:26:55;10.93;;;2.90;;
13483;SDS011;6814;57.786;12.080;2023-01-10T10:32:16;10.43;;;3.77;;
13483;SDS011;6814;57.786;12.080;2023-01-10T10:34:46;8.13;;;2.83;;
13483;SDS011;6814;57.786;12.080;2023-01-10T10:37:16;8.57;;;2.73;;
13483;SDS011;6814;57.786;12.080;2023-01-10T10:39:47;12.43;;;3.20;;
13483;SDS011;6814;57.786;12.080;2023-01-10T10:42:16;8.40;;;3.70;;
13483;SDS011;6814;57.786;12.080;2023-01-10T10:44:43;11.53;;;3.63;;
13483;SDS011;6814;57.786;12.080;2023-01-10T10:47:12;12.07;;;3.50;;
13483;SDS011;6814;57.786;12.080;2023-01-10T10:49:41;9.93;;;3.63;;
13483;SDS011;6814;57.786;12.080;2023-01-10T10:52:11;11.27;;;3.57;;
13483;SDS011;6814;57.786;12.080;2023-01-10T10:54:39;7.73;;;2.77;;
13483;SDS011;6814;57.786;12.080;2023-01-10T10:57:07;10.20;;;3.30;;
13483;SDS011;6814;57.786;12.080;2023-01-10T10:59:34;12.50;;;3.90;;
13483;SDS011;6814;57.786;12.080;2023-01-10T11:02:00;13.93;;;3.27;;
13483;SDS011;6814;57.786;12.080;2023-01-10T11:04:27;11.53;;;3.53;;
13483;SDS011;6814;57.786;12.080;2023-01-10T11:06:56;8.57;;;2.90;;
13483;SDS011;6814;57.786;12.080;2023-01-10T11:09:23;9.47;;;3.33;;
13483;SDS011;6814;57.786;12.080;2023-01-10T11:11:51;12.37;;;3.80;;
13483;SDS011;6814;57.786;12.080;2023-01-10T11:19:49;10.47;;;2.70;;
13483;SDS011;6814;57.786;12.080;2023-01-10T11:22:19;19.57;;;3.27;;
13483;SDS011;6814;57.786;12.080;2023-01-10T11:24:49;15.10;;;3.30;;
13483;SDS011;6814;57.786;12.080;2023-01-10T11:27:17;13.03;;;3.60;;
13483;SDS011;6814;57.786;12.080;2023-01-10T11:29:44;16.80;;;3.60;;
13483;SDS011;6814;57.786;12.080;2023-01-10T11:32:15;10.43;;;3.37;;
13483;SDS011;6814;57.786;12.080;2023-01-10T11:34:49;15.33;;;3.37;;
13483;SDS011;6814;57.786;12.080;2023-01-10T11:37:19;13.17;;;3.07;;
13483;SDS011;6814;57.786;12.080;2023-01-10T11:39:46;20.50;;;4.10;;
13483;SDS011;6814;57.786;12.080;2023-01-10T11:42:22;12.50;;;3.00;;
13483;SDS011;6814;57.786;12.080;2023-01-10T11:44:50;15.47;;;3.30;;
13483;SDS011;6814;57.786;12.080;2023-01-10T11:47:16;13.07;;;3.33;;
13483;SDS011;6814;57.786;12.080;2023-01-10T11:49:45;8.27;;;3.00;;
13483;SDS011;6814;57.786;12.080;2023-01-10T11:52:14;10.87;;;3.80;;
13483;SDS011;6814;57.786;12.080;2023-01-10T11:54:42;17.00;;;2.97;;
13483;SDS011;6814;57.786;12.080;2023-01-10T11:57:08;12.60;;;2.80;;
13483;SDS011;6814;57.786;12.080;2023-01-10T11:59:39;14.23;;;3.67;;
13483;SDS011;6814;57.786;12.080;2023-01-10T12:02:16;15.83;;;3.73;;
13483;SDS011;6814;57.786;12.080;2023-01-10T12:04:46;9.70;;;2.47;;
13483;SDS011;6814;57.786;12.080;2023-01-10T12:07:16;20.50;;;3.90;;
13483;SDS011;6814;57.786;12.080;2023-01-10T12:09:43;16.27;;;3.70;;
13483;SDS011;6814;57.786;12.080;2023-01-10T12:12:15;12.40;;;2.77;;
13483;SDS011;6814;57.786;12.080;2023-01-10T12:14:41;15.27;;;3.70;;
13483;SDS011;6814;57.786;12.080;2023-01-10T12:17:09;18.00;;;3.83;;
13483;SDS011;6814;57.786;12.080;2023-01-10T12:19:36;17.83;;;3.90;;
13483;SDS011;6814;57.786;12.080;2023-01-10T12:22:03;16.13;;;3.50;;
13483;SDS011;6814;57.786;12.080;2023-01-10T12:24:31;11.57;;;3.03;;
13483;SDS011;6814;57.786;12.080;2023-01-10T12:26:59;14.60;;;3.43;;
13483;SDS011;6814;57.786;12.080;2023-01-10T12:29:27;8.63;;;3.03;;
13483;SDS011;6814;57.786;12.080;2023-01-10T12:31:54;11.63;;;2.80;;
13483;SDS011;6814;57.786;12.080;2023-01-10T12:34:24;11.27;;;3.03;;
13483;SDS011;6814;57.786;12.080;2023-01-10T12:36:54;9.23;;;2.70;;
13483;SDS011;6814;57.786;12.080;2023-01-10T12:39:23;16.23;;;3.23;;
13483;SDS011;6814;57.786;12.080;2023-01-10T12:41:58;10.53;;;2.40;;
13483;SDS011;6814;57.786;12.080;2023-01-10T12:44:44;11.10;;;2.60;;
13483;SDS011;6814;57.786;12.080;2023-01-10T12:47:19;10.30;;;2.40;;
13483;SDS011;6814;57.786;12.080;2023-01-10T12:49:48;15.97;;;2.63;;
13483;SDS011;6814;57.786;12.080;2023-01-10T12:52:17;11.63;;;2.37;;
13483;SDS011;6814;57.786;12.080;2023-01-10T12:54:44;14.03;;;3.13;;
13483;SDS011;6814;57.786;12.080;2023-01-10T12:57:21;14.73;;;2.73;;
13483;SDS011;6814;57.786;12.080;2023-01-10T12:59:48;8.83;;;2.37;;
13483;SDS011;6814;57.786;12.080;2023-01-10T13:02:16;10.37;;;2.07;;
13483;SDS011;6814;57.786;12.080;2023-01-10T13:04:44;10.00;;;2.20;;
13483;SDS011;6814;57.786;12.080;2023-01-10T13:07:13;9.97;;;2.10;;
13483;SDS011;6814;57.786;12.080;2023-01-10T13:09:41;11.20;;;3.23;;
13483;SDS011;6814;57.786;12.080;2023-01-10T13:12:10;8.80;;;2.57;;
13483;SDS011;6814;57.786;12.080;2023-01-10T13:14:41;13.40;;;2.53;;
13483;SDS011;6814;57.786;12.080;2023-01-10T13:17:15;13.27;;;2.90;;
13483;SDS011;6814;57.786;12.080;2023-01-10T13:19:49;12.77;;;3.00;;
13483;SDS011;6814;57.786;12.080;2023-01-10T13:22:36;12.07;;;3.47;;
13483;SDS011;6814;57.786;12.080;2023-01-10T13:25:02;11.10;;;3.23;;
13483;SDS011;6814;57.786;12.080;2023-01-10T13:27:30;15.93;;;4.13;;
13483;SDS011;6814;57.786;12.080;2023-01-10T13:30:00;12.07;;;3.33;;
13483;SDS011;6814;57.786;12.080;2023-01-10T13:32:28;16.43;;;3.43;;
13483;SDS011;6814;57.786;12.080;2023-01-10T13:34:55;14.67;;;3.60;;
13483;SDS011;6814;57.786;12.080;2023-01-10T13:37:35;13.57;;;3.70;;
13483;SDS011;6814;57.786;12.080;2023-01-10T13:40:02;18.43;;;4.10;;
13483;SDS011;6814;57.786;12.080;2023-01-10T13:42:30;14.93;;;3.47;;
13483;SDS011;6814;57.786;12.080;2023-01-10T13:45:20;15.33;;;3.70;;
13483;SDS011;6814;57.786;12.080;2023-01-10T13:48:02;17.13;;;3.87;;
13483;SDS011;6814;57.786;12.080;2023-01-10T13:56:26;24.30;;;4.80;;
13483;SDS011;6814;57.786;12.080;2023-01-10T13:58:54;23.57;;;4.60;;
13483;SDS011;6814;57.786;12.080;2023-01-10T14:01:39;17.37;;;3.80;;
13483;SDS011;6814;57.786;12.080;2023-01-10T14:04:25;18.83;;;4.00;;
13483;SDS011;6814;57.786;12.080;2023-01-10T14:06:52;25.47;;;4.87;;
13483;SDS011;6814;57.786;12.080;2023-01-10T14:09:30;26.30;;;4.53;;
13483;SDS011;6814;57.786;12.080;2023-01-10T14:11:58;16.07;;;3.83;;
13483;SDS011;6814;57.786;12.080;2023-01-10T14:14:26;17.47;;;3.43;;
13483;SDS011;6814;57.786;12.080;2023-01-10T14:16:55;15.70;;;3.47;;
13483;SDS011;6814;57.786;12.080;2023-01-10T14:19:23;17.30;;;3.30;;
13483;SDS011;6814;57.786;12.080;2023-01-10T14:21:52;16.83;;;4.10;;
13483;SDS011;6814;57.786;12.080;2023-01-10T14:24:21;20.60;;;3.63;;
13483;SDS011;6814;57.786;12.080;2023-01-10T14:26:49;15.77;;;3.83;;
13483;SDS011;6814;57.786;12.080;2023-01-10T14:29:19;22.90;;;4.30;;
13483;SDS011;6814;57.786;12.080;2023-01-10T14:31:47;23.53;;;5.10;;
13483;SDS011;6814;57.786;12.080;2023-01-10T14:34:17;22.47;;;4.37;;
13483;SDS011;6814;57.786;12.080;2023-01-10T14:36:47;23.03;;;4.30;;
13483;SDS011;6814;57.786;12.080;2023-01-10T14:39:15;23.33;;;4.13;;
13483;SDS011;6814;57.786;12.080;2023-01-10T14:41:42;21.17;;;5.20;;
13483;SDS011;6814;57.786;12.080;2023-01-10T14:44:12;15.87;;;4.20;;
13483;SDS011;6814;57.786;12.080;2023-01-10T14:46:42;20.93;;;4.70;;
13483;SDS011;6814;57.786;12.080;2023-01-10T14:49:21;22.20;;;4.17;;
13483;SDS011;6814;57.786;12.080;2023-01-10T14:51:48;16.37;;;3.67;;
13483;SDS011;6814;57.786;12.080;2023-01-10T14:54:16;17.80;;;4.87;;
13483;SDS011;6814;57.786;12.080;2023-01-10T14:56:43;18.40;;;4.23;;
13483;SDS011;6814;57.786;12.080;2023-01-10T14:59:16;17.50;;;4.03;;
13483;SDS011;6814;57.786;12.080;2023-01-10T15:01:45;23.03;;;4.57;;